Time;durP1;ratioP1;P1;durP2;ratioP2;P2;SDS_P1;SDS_P2;PMS_P1;PMS_P2;Temp;Humidity;BMP_temperature;BMP_pressure;BME280_temperature;BME280_humidity;BME280_pressure;Samples;Min_cycle;Max_cycle;Signal;HPM_P1;HPM_P2
2022/12/30 00:01:10;;;;;;;15.77;2.28;;;4.30;99.90;;;;;;4944997;28;20038;-91
2022/12/30 00:03:36;;;;;;;17.48;2.60;;;4.30;99.90;;;;;;4946507;28;20023;-89
2022/12/30 00:06:04;;;;;;;17.95;2.38;;;4.30;99.90;;;;;;4961104;28;20134;-92
2022/12/30 00:08:47;;;;;;;11.25;2.13;;;4.30;99.90;;;;;;4960100;28;20166;-90
2022/12/30 00:11:33;;;;;;;9.48;1.95;;;4.30;99.90;;;;;;4940529;28;20027;-91
2022/12/30 00:33:58;;;;;;;12.77;1.52;;;4.70;99.90;;;;;;4954201;28;20094;-93
2022/12/30 00:36:25;;;;;;;11.75;2.42;;;4.70;99.90;;;;;;4945360;28;20393;-93
2022/12/30 00:38:51;;;;;;;16.27;2.65;;;4.70;99.90;;;;;;4944750;29;20039;-91
2022/12/30 00:44:01;;;;;;;17.30;3.30;;;4.80;99.90;;;;;;4949194;29;20094;-90
2022/12/30 00:46:27;;;;;;;13.27;2.22;;;4.80;99.90;;;;;;4944648;29;20031;-92
2022/12/30 00:57:05;;;;;;;16.38;2.25;;;4.90;99.90;;;;;;4946999;29;20107;-91
2022/12/30 00:59:30;;;;;;;11.57;2.00;;;4.90;99.90;;;;;;4945974;28;20023;-91
2022/12/30 01:01:56;;;;;;;10.68;1.88;;;4.90;99.90;;;;;;4943083;28;20038;-90
2022/12/30 01:04:22;;;;;;;14.43;1.85;;;4.90;99.90;;;;;;4942458;29;20509;-91
2022/12/30 01:06:47;;;;;;;13.00;1.95;;;4.90;99.90;;;;;;4944212;28;20034;-93
2022/12/30 01:09:13;;;;;;;13.18;1.77;;;4.80;99.90;;;;;;4947409;29;20027;-91
2022/12/30 01:11:39;;;;;;;19.50;2.15;;;4.80;99.90;;;;;;4948189;29;20096;-91
2022/12/30 01:14:04;;;;;;;18.67;1.90;;;4.90;99.90;;;;;;4946062;29;20103;-92
2022/12/30 01:16:30;;;;;;;14.15;1.80;;;4.90;99.90;;;;;;4947309;29;20031;-91
2022/12/30 01:18:56;;;;;;;12.40;2.50;;;4.90;99.90;;;;;;4948747;29;20023;-91
2022/12/30 01:21:22;;;;;;;19.35;2.25;;;4.80;99.90;;;;;;4948909;29;20038;-92
2022/12/30 01:23:48;;;;;;;9.38;2.38;;;4.90;99.90;;;;;;4948554;29;20027;-91
2022/12/30 01:26:14;;;;;;;11.40;3.22;;;4.80;99.90;;;;;;4951119;29;20110;-92
2022/12/30 01:28:39;;;;;;;19.48;3.70;;;4.80;99.90;;;;;;4948468;28;20031;-92
2022/12/30 01:31:09;;;;;;;16.85;3.92;;;4.80;99.90;;;;;;4945708;28;20028;-91
2022/12/30 01:33:36;;;;;;;8.07;2.78;;;4.70;99.90;;;;;;4945295;28;20078;-91
2022/12/30 01:36:03;;;;;;;14.48;3.67;;;4.70;99.90;;;;;;4946311;29;20507;-91
2022/12/30 01:38:30;;;;;;;12.10;3.80;;;4.70;99.90;;;;;;4937877;28;20052;-94
2022/12/30 01:40:57;;;;;;;17.65;4.40;;;4.60;99.90;;;;;;4934226;29;20182;-91
2022/12/30 01:43:43;;;;;;;10.07;3.92;;;4.70;99.90;;;;;;4934545;29;20043;-91
2022/12/30 01:46:12;;;;;;;15.15;4.43;;;4.70;99.90;;;;;;4934593;29;20115;-92
2022/12/30 01:48:38;;;;;;;11.30;3.80;;;4.70;99.90;;;;;;4936357;29;20032;-89
2022/12/30 01:51:14;;;;;;;11.13;4.30;;;4.70;99.90;;;;;;4938528;29;20032;-89
2022/12/30 01:53:48;;;;;;;17.20;3.83;;;4.70;99.90;;;;;;4936247;29;20028;-92
2022/12/30 01:56:23;;;;;;;13.50;4.50;;;4.60;99.90;;;;;;4936556;29;20134;-91
2022/12/30 01:58:59;;;;;;;24.20;5.43;;;4.70;99.90;;;;;;4935313;29;20028;-89
2022/12/30 02:01:24;;;;;;;17.38;4.07;;;4.70;99.90;;;;;;4934616;29;20028;-92
2022/12/30 02:04:04;;;;;;;16.63;4.45;;;4.70;99.90;;;;;;4934338;29;20062;-91
2022/12/30 02:06:43;;;;;;;12.13;3.50;;;4.70;99.90;;;;;;4934129;29;20405;-90
2022/12/30 02:09:09;;;;;;;14.70;3.85;;;4.70;99.90;;;;;;4934162;29;20466;-92
2022/12/30 02:11:34;;;;;;;17.00;4.65;;;4.70;99.90;;;;;;4934284;29;20040;-91
2022/12/30 02:14:01;;;;;;;21.08;3.45;;;4.80;99.90;;;;;;4934048;29;20043;-92
2022/12/30 02:16:37;;;;;;;13.43;4.15;;;4.70;99.90;;;;;;4933648;29;20032;-90
2022/12/30 02:19:28;;;;;;;14.57;3.33;;;4.80;99.90;;;;;;4933363;29;20024;-91
2022/12/30 02:22:30;;;;;;;12.45;2.90;;;4.80;99.90;;;;;;4933605;29;20051;-91
2022/12/30 02:24:58;;;;;;;17.80;3.25;;;4.80;99.90;;;;;;4952833;29;20031;-93
2022/12/30 02:27:49;;;;;;;13.52;3.00;;;4.80;99.90;;;;;;4952819;29;20086;-91
2022/12/30 02:30:26;;;;;;;19.08;4.50;;;4.80;99.90;;;;;;4952700;29;20484;-92
2022/12/30 02:33:12;;;;;;;14.82;2.97;;;4.80;99.90;;;;;;4952623;28;20119;-91
2022/12/30 02:36:18;;;;;;;16.23;2.88;;;4.80;99.90;;;;;;4952324;29;20390;-91
2022/12/30 02:39:21;;;;;;;10.57;1.73;;;4.90;99.90;;;;;;4951710;29;20181;-92
2022/12/30 02:44:53;;;;;;;12.68;2.17;;;5.00;99.90;;;;;;4937464;29;20047;-90
2022/12/30 02:47:36;;;;;;;12.68;2.22;;;5.00;99.90;;;;;;4952347;29;20035;-91
2022/12/30 02:52:54;;;;;;;6.85;1.27;;;5.10;99.90;;;;;;4937451;29;20030;-91
2022/12/30 02:55:20;;;;;;;15.98;2.15;;;5.10;99.90;;;;;;4951961;29;20122;-90
2022/12/30 02:57:45;;;;;;;11.40;2.67;;;5.20;99.90;;;;;;4951942;29;20438;-89
2022/12/30 03:06:16;;;;;;;18.42;2.25;;;5.50;99.90;;;;;;4936957;29;20034;-92
2022/12/30 03:09:01;;;;;;;10.82;1.50;;;5.50;99.90;;;;;;4951807;29;20039;-91
2022/12/30 03:11:32;;;;;;;12.07;1.38;;;5.60;99.90;;;;;;4951825;29;20103;-90
2022/12/30 03:14:07;;;;;;;16.08;2.58;;;5.70;99.90;;;;;;4951935;29;20062;-91
2022/12/30 03:16:42;;;;;;;8.25;1.95;;;5.70;99.90;;;;;;4951652;29;20095;-91
2022/12/30 03:19:17;;;;;;;17.08;1.83;;;5.70;99.90;;;;;;4951499;29;20027;-91
2022/12/30 03:21:44;;;;;;;16.27;3.25;;;5.80;99.90;;;;;;4951278;29;20130;-92
2022/12/30 03:27:05;;;;;;;19.45;2.20;;;5.80;99.90;;;;;;4936976;29;20094;-90
2022/12/30 03:29:55;;;;;;;12.43;1.83;;;5.90;99.90;;;;;;4951879;29;20023;-91
2022/12/30 03:32:22;;;;;;;7.05;1.45;;;5.90;99.90;;;;;;4951356;28;20024;-89
2022/12/30 03:34:48;;;;;;;16.90;2.33;;;6.00;99.90;;;;;;4951278;29;20039;-90
2022/12/30 03:37:27;;;;;;;10.52;1.40;;;6.00;99.90;;;;;;4951346;29;20062;-92
2022/12/30 03:40:25;;;;;;;12.27;1.10;;;6.00;99.90;;;;;;4951238;29;20501;-90
2022/12/30 03:42:53;;;;;;;15.63;1.45;;;6.00;99.90;;;;;;4930841;29;20199;-91
2022/12/30 03:45:19;;;;;;;12.98;1.75;;;6.10;99.90;;;;;;4951200;29;20078;-92
2022/12/30 03:47:44;;;;;;;8.13;1.67;;;6.10;99.90;;;;;;4951377;29;20027;-91
2022/12/30 03:50:11;;;;;;;12.18;2.38;;;6.20;99.90;;;;;;4951122;29;20028;-91
2022/12/30 03:52:36;;;;;;;6.47;1.27;;;6.20;99.90;;;;;;4951923;29;20028;-91
2022/12/30 03:55:04;;;;;;;16.50;1.50;;;6.20;99.90;;;;;;4934987;29;20038;-90
2022/12/30 03:57:29;;;;;;;10.75;1.90;;;6.20;99.90;;;;;;4951333;29;20110;-91
2022/12/30 03:59:55;;;;;;;16.40;1.77;;;6.30;99.90;;;;;;4951253;29;20051;-91
2022/12/30 04:02:21;;;;;;;3.05;0.93;;;6.30;99.90;;;;;;4950866;29;20047;-91
2022/12/30 04:04:47;;;;;;;8.38;1.58;;;6.30;99.90;;;;;;4950974;29;20462;-91
2022/12/30 04:07:12;;;;;;;7.47;1.58;;;6.30;99.90;;;;;;4935094;29;20035;-92
2022/12/30 04:09:38;;;;;;;15.18;1.77;;;6.30;99.90;;;;;;4950981;29;20385;-91
2022/12/30 04:12:04;;;;;;;16.48;2.55;;;6.30;99.90;;;;;;4951066;29;20031;-92
2022/12/30 04:14:30;;;;;;;16.85;1.85;;;6.40;99.90;;;;;;4951175;29;20140;-90
2022/12/30 04:16:56;;;;;;;7.20;1.80;;;6.40;99.90;;;;;;4951159;29;20063;-91
2022/12/30 04:19:21;;;;;;;8.70;1.58;;;6.40;99.90;;;;;;4950427;29;20028;-91
2022/12/30 04:21:47;;;;;;;25.98;3.08;;;6.50;99.90;;;;;;4950894;29;20043;-92
2022/12/30 04:24:13;;;;;;;13.05;2.50;;;6.50;99.90;;;;;;4934941;29;20042;-92
2022/12/30 04:26:38;;;;;;;10.95;1.25;;;6.50;99.90;;;;;;4950935;29;20091;-91
2022/12/30 04:29:04;;;;;;;12.52;1.42;;;6.50;99.90;;;;;;4950788;29;20079;-90
2022/12/30 04:31:31;;;;;;;20.27;2.15;;;6.50;99.90;;;;;;4950533;28;20030;-92
2022/12/30 04:33:56;;;;;;;11.60;1.48;;;6.50;99.90;;;;;;4950776;29;20390;-92
2022/12/30 04:36:22;;;;;;;9.82;2.03;;;6.50;99.90;;;;;;4950828;29;20020;-92
2022/12/30 04:38:48;;;;;;;14.48;2.38;;;6.60;99.90;;;;;;4938028;29;20047;-91
2022/12/30 04:41:14;;;;;;;15.88;1.98;;;6.60;99.90;;;;;;4953712;28;20025;-91
2022/12/30 04:43:39;;;;;;;37.00;1.80;;;6.60;99.90;;;;;;4957577;29;20400;-90
2022/12/30 04:46:05;;;;;;;16.88;2.70;;;6.60;99.90;;;;;;4957525;29;20034;-92
2022/12/30 04:48:32;;;;;;;25.83;3.05;;;6.70;99.90;;;;;;4957657;29;20031;-92
2022/12/30 04:50:57;;;;;;;8.65;1.60;;;6.70;99.90;;;;;;4957470;29;20127;-92
2022/12/30 04:53:23;;;;;;;9.75;1.58;;;6.70;99.90;;;;;;4941849;29;20477;-89
2022/12/30 04:55:53;;;;;;;14.77;2.03;;;6.70;99.90;;;;;;4959869;29;20465;-87
2022/12/30 04:58:19;;;;;;;13.68;1.80;;;6.70;99.90;;;;;;4962146;29;20023;-90
2022/12/30 05:00:47;;;;;;;20.95;1.85;;;6.80;99.90;;;;;;4961357;29;20038;-91
2022/12/30 05:03:12;;;;;;;13.85;1.55;;;6.80;99.90;;;;;;4961089;29;20098;-88
2022/12/30 05:05:38;;;;;;;7.30;0.88;;;6.80;99.90;;;;;;4959593;29;20023;-91
2022/12/30 05:08:04;;;;;;;13.30;1.67;;;6.80;99.90;;;;;;4942151;29;20042;-90
2022/12/30 05:10:30;;;;;;;15.40;1.80;;;6.80;99.90;;;;;;4957654;29;20028;-89
2022/12/30 05:12:55;;;;;;;19.48;2.67;;;6.80;99.90;;;;;;4957355;29;20023;-92
2022/12/30 05:15:21;;;;;;;15.98;1.98;;;6.80;99.90;;;;;;4957142;29;20027;-92
2022/12/30 05:17:46;;;;;;;5.68;1.20;;;6.90;99.90;;;;;;4943376;29;20027;-94
2022/12/30 05:20:13;;;;;;;17.10;2.25;;;6.90;99.90;;;;;;4938946;29;20036;-92
2022/12/30 05:22:39;;;;;;;4.43;0.88;;;6.90;99.90;;;;;;4938162;29;20059;-91
2022/12/30 05:27:49;;;;;;;19.50;2.33;;;6.90;99.90;;;;;;4939189;29;20413;-91
2022/12/30 05:30:14;;;;;;;9.68;1.58;;;6.90;99.90;;;;;;4937974;29;20031;-91
2022/12/30 05:32:40;;;;;;;18.98;1.88;;;6.90;99.90;;;;;;4938573;29;20094;-91
2022/12/30 05:35:06;;;;;;;14.38;1.63;;;7.00;99.90;;;;;;4937894;29;20024;-89
2022/12/30 05:37:32;;;;;;;26.58;1.70;;;7.00;99.90;;;;;;4930656;29;20107;-92
2022/12/30 05:39:58;;;;;;;21.42;2.00;;;7.00;99.90;;;;;;4955663;29;20065;-91
2022/12/30 05:42:23;;;;;;;16.50;3.00;;;6.90;99.90;;;;;;4956970;29;20031;-90
2022/12/30 05:44:49;;;;;;;14.30;1.95;;;6.90;99.90;;;;;;4956517;29;20122;-89
2022/12/30 05:47:15;;;;;;;21.80;1.90;;;6.90;99.90;;;;;;4956538;29;20031;-90
2022/12/30 05:49:42;;;;;;;23.15;1.55;;;6.90;99.90;;;;;;4956607;29;20019;-91
2022/12/30 05:52:07;;;;;;;17.92;1.90;;;6.90;99.90;;;;;;4956572;29;20508;-90
2022/12/30 05:54:33;;;;;;;19.02;1.35;;;6.90;99.90;;;;;;4955894;28;20074;-90
2022/12/30 05:56:59;;;;;;;16.27;1.98;;;6.90;99.90;;;;;;4956333;29;20114;-92
2022/12/30 05:59:24;;;;;;;19.65;2.33;;;6.90;99.90;;;;;;4956112;29;20035;-90
2022/12/30 06:01:50;;;;;;;7.93;1.23;;;6.90;99.90;;;;;;4957149;29;20035;-90
2022/12/30 06:04:17;;;;;;;16.77;1.98;;;6.90;99.90;;;;;;4956367;29;20400;-92
2022/12/30 06:06:43;;;;;;;19.48;2.30;;;6.90;99.90;;;;;;4956262;28;20031;-91
2022/12/30 06:09:10;;;;;;;10.30;0.95;;;6.90;99.90;;;;;;4939891;29;20024;-90
2022/12/30 06:11:36;;;;;;;12.75;1.55;;;7.00;99.90;;;;;;4956075;28;20035;-91
2022/12/30 06:14:01;;;;;;;30.50;3.67;;;6.90;99.90;;;;;;4956032;29;20477;-91
2022/12/30 06:16:27;;;;;;;14.20;2.03;;;7.00;99.90;;;;;;4955842;29;20067;-89
2022/12/30 06:18:53;;;;;;;19.17;2.67;;;7.00;99.90;;;;;;4955548;29;20031;-91
2022/12/30 06:21:18;;;;;;;15.85;1.50;;;7.00;99.90;;;;;;4955979;29;20035;-91
2022/12/30 06:23:44;;;;;;;12.32;2.03;;;7.00;99.90;;;;;;4955839;29;20038;-91
2022/12/30 06:26:10;;;;;;;11.95;1.80;;;7.00;99.90;;;;;;4955838;29;20388;-91
2022/12/30 06:28:35;;;;;;;16.02;2.00;;;7.00;99.90;;;;;;4955842;29;20377;-89
2022/12/30 06:31:01;;;;;;;16.52;1.33;;;7.00;99.90;;;;;;4955470;28;20027;-90
2022/12/30 06:33:28;;;;;;;18.75;1.88;;;7.00;99.90;;;;;;4939770;29;20038;-90
2022/12/30 06:35:54;;;;;;;11.20;1.90;;;7.10;99.90;;;;;;4955530;29;20114;-90
2022/12/30 06:38:20;;;;;;;14.75;1.92;;;7.10;99.90;;;;;;4955715;29;20093;-90
2022/12/30 06:40:45;;;;;;;13.57;2.60;;;7.10;99.90;;;;;;4955386;28;20027;-91
2022/12/30 06:43:12;;;;;;;12.68;1.95;;;7.10;99.90;;;;;;4955173;29;20134;-91
2022/12/30 06:45:38;;;;;;;19.00;2.08;;;7.10;99.90;;;;;;4955524;29;20031;-90
2022/12/30 06:48:04;;;;;;;16.27;2.95;;;7.10;99.90;;;;;;4955573;29;20038;-89
2022/12/30 06:50:30;;;;;;;9.55;1.40;;;7.10;99.90;;;;;;4955417;29;20058;-90
2022/12/30 06:52:55;;;;;;;10.65;2.10;;;7.20;99.90;;;;;;4955273;29;20031;-91
2022/12/30 06:55:24;;;;;;;7.78;1.75;;;7.20;99.90;;;;;;4955298;29;20023;-92
2022/12/30 06:57:49;;;;;;;16.90;2.10;;;7.20;99.90;;;;;;4955201;28;20035;-90
2022/12/30 07:00:15;;;;;;;10.32;1.77;;;7.20;99.90;;;;;;4955071;29;20046;-91
2022/12/30 07:02:41;;;;;;;13.18;1.98;;;7.20;99.90;;;;;;4954943;29;20035;-91
2022/12/30 07:05:07;;;;;;;6.38;1.30;;;7.20;99.90;;;;;;4954226;28;20026;-90
2022/12/30 07:07:33;;;;;;;12.70;1.77;;;7.20;99.90;;;;;;4954992;29;20230;-90
2022/12/30 07:10:03;;;;;;;13.32;1.83;;;7.20;99.90;;;;;;4954906;29;20026;-90
2022/12/30 07:12:30;;;;;;;13.93;1.73;;;7.20;99.90;;;;;;4954907;29;20122;-90
2022/12/30 07:14:55;;;;;;;20.63;2.67;;;7.20;99.90;;;;;;4954652;28;20035;-90
2022/12/30 07:17:21;;;;;;;9.02;1.58;;;7.20;99.90;;;;;;4954914;29;20490;-89
2022/12/30 07:19:47;;;;;;;13.35;1.40;;;7.20;99.90;;;;;;4954691;29;20480;-91
2022/12/30 07:22:13;;;;;;;7.22;1.05;;;7.20;99.90;;;;;;4954846;29;20405;-92
2022/12/30 07:24:39;;;;;;;8.93;2.42;;;7.20;99.90;;;;;;4954993;29;20078;-92
2022/12/30 07:27:04;;;;;;;13.20;1.58;;;7.20;99.90;;;;;;4949499;29;20031;-92
2022/12/30 07:29:30;;;;;;;15.75;1.52;;;7.20;99.90;;;;;;4944221;29;20027;-91
2022/12/30 07:31:57;;;;;;;12.32;2.20;;;7.20;99.90;;;;;;4943125;28;20495;-90
2022/12/30 07:34:25;;;;;;;16.85;2.45;;;7.20;99.90;;;;;;4944588;29;20115;-90
2022/12/30 07:36:51;;;;;;;17.52;2.10;;;7.20;99.90;;;;;;4944634;29;20043;-89
2022/12/30 07:39:17;;;;;;;11.73;1.90;;;7.20;99.90;;;;;;4946582;29;20366;-90
2022/12/30 07:41:42;;;;;;;6.88;1.50;;;7.30;99.90;;;;;;4942945;29;20038;-90
2022/12/30 07:44:08;;;;;;;15.15;2.00;;;7.20;99.90;;;;;;4944637;29;20023;-91
2022/12/30 07:46:34;;;;;;;16.30;4.25;;;7.20;99.90;;;;;;4943825;28;20023;-90
2022/12/30 07:48:59;;;;;;;14.82;1.55;;;7.20;99.90;;;;;;4948571;29;20493;-89
2022/12/30 07:51:25;;;;;;;13.18;1.95;;;7.20;99.90;;;;;;4944743;29;20113;-90
2022/12/30 07:53:50;;;;;;;13.70;1.75;;;7.30;99.90;;;;;;4945463;29;20141;-91
2022/12/30 07:56:16;;;;;;;13.32;1.80;;;7.20;99.90;;;;;;4945767;29;20031;-94
2022/12/30 07:58:42;;;;;;;11.00;1.80;;;7.20;99.90;;;;;;4946668;29;20027;-90
2022/12/30 08:01:13;;;;;;;19.92;1.85;;;7.20;99.90;;;;;;4946377;28;20594;-92
2022/12/30 08:03:43;;;;;;;11.82;1.92;;;7.20;99.90;;;;;;4949840;29;20095;-91
2022/12/30 08:06:36;;;;;;;10.93;1.75;;;7.20;99.90;;;;;;4948012;28;20034;-90
2022/12/30 08:09:05;;;;;;;18.98;1.73;;;7.20;99.90;;;;;;4950920;29;20397;-90
2022/12/30 08:11:31;;;;;;;;;;;7.10;99.90;;;;;;4942140;29;20090;-92
2022/12/30 08:13:57;;;;;;;19.58;2.03;;;7.20;99.90;;;;;;4946562;29;19911;-90
2022/12/30 08:16:22;;;;;;;17.48;1.63;;;7.20;99.90;;;;;;4943665;28;20091;-89
2022/12/30 08:18:48;;;;;;;14.00;1.73;;;7.10;99.90;;;;;;4948750;28;20425;-90
2022/12/30 08:21:16;;;;;;;16.75;1.73;;;7.10;99.90;;;;;;4946846;29;20469;-89
2022/12/30 08:23:44;;;;;;;12.00;1.17;;;7.10;99.90;;;;;;4939807;29;20035;-90
2022/12/30 08:26:15;;;;;;;15.70;2.78;;;7.10;99.90;;;;;;4950218;28;20024;-90
2022/12/30 08:28:41;;;;;;;16.45;1.73;;;7.10;99.90;;;;;;4948730;29;20410;-89
2022/12/30 08:31:17;;;;;;;18.45;2.03;;;7.10;99.90;;;;;;4950062;28;20110;-89
2022/12/30 08:33:44;;;;;;;20.20;1.92;;;7.10;99.90;;;;;;4950253;29;20063;-90
2022/12/30 08:36:12;;;;;;;10.75;1.40;;;7.10;99.90;;;;;;4932090;29;20031;-90
2022/12/30 08:38:41;;;;;;;17.02;1.95;;;7.10;99.90;;;;;;4949408;29;20079;-91
2022/12/30 08:41:13;;;;;;;18.23;2.40;;;7.10;99.90;;;;;;4947317;29;20631;-89
2022/12/30 08:43:41;;;;;;;11.10;1.45;;;7.10;99.90;;;;;;4949475;28;20122;-92
2022/12/30 08:46:07;;;;;;;12.80;2.38;;;7.10;99.90;;;;;;4948171;29;20020;-91
2022/12/30 08:48:33;;;;;;;5.07;1.00;;;7.10;99.90;;;;;;4947918;29;20019;-91
2022/12/30 08:50:59;;;;;;;18.27;1.90;;;7.10;99.90;;;;;;4949910;29;20016;-92
2022/12/30 08:53:25;;;;;;;19.02;2.38;;;7.10;99.90;;;;;;4948660;28;20437;-90
2022/12/30 08:56:19;;;;;;;12.70;2.10;;;7.10;99.90;;;;;;4945913;29;20039;-90
2022/12/30 08:58:45;;;;;;;16.17;1.83;;;7.10;99.90;;;;;;4946868;29;20040;-91
2022/12/30 09:01:20;;;;;;;13.10;1.65;;;7.10;99.90;;;;;;4947880;28;20023;-94
2022/12/30 09:03:47;;;;;;;10.75;1.77;;;7.10;99.90;;;;;;4931926;29;20032;-90
2022/12/30 09:06:18;;;;;;;11.07;2.13;;;7.10;99.90;;;;;;4947264;28;20043;-91
2022/12/30 09:08:44;;;;;;;;;;;7.10;99.90;;;;;;4939652;29;20035;-91
2022/12/30 09:11:17;;;;;;;11.15;1.52;;;7.10;99.90;;;;;;4950171;28;19910;-92
2022/12/30 09:13:43;;;;;;;14.05;1.90;;;7.10;99.90;;;;;;4947242;29;20034;-93
2022/12/30 09:16:12;;;;;;;12.13;1.60;;;7.10;99.90;;;;;;4950486;28;20114;-94
2022/12/30 09:18:39;;;;;;;12.18;1.90;;;7.20;99.90;;;;;;4948926;29;20027;-91
2022/12/30 09:21:06;;;;;;;4.32;0.68;;;7.20;99.90;;;;;;4949721;29;20032;-93
2022/12/30 09:23:32;;;;;;;9.90;1.33;;;7.20;99.90;;;;;;4948373;29;20035;-93
2022/12/30 09:25:58;;;;;;;7.63;1.00;;;7.20;99.90;;;;;;4946394;29;20095;-91
2022/12/30 09:28:26;;;;;;;1.58;0.75;;;7.20;99.90;;;;;;4946371;29;20059;-93
2022/12/30 09:30:52;;;;;;;6.65;2.42;;;7.30;99.90;;;;;;4947349;29;20030;-91
2022/12/30 09:33:18;;;;;;;3.38;0.70;;;7.30;99.90;;;;;;4951869;29;20358;-90
2022/12/30 09:35:46;;;;;;;8.48;0.88;;;7.30;99.90;;;;;;4955131;28;20027;-91
2022/12/30 09:38:11;;;;;;;4.15;0.80;;;7.30;99.90;;;;;;4955255;29;20083;-93
2022/12/30 09:41:02;;;;;;;5.78;2.33;;;7.30;99.90;;;;;;4950836;29;20074;-93
2022/12/30 09:44:25;;;;;;;5.60;1.45;;;7.30;99.90;;;;;;4940554;29;20039;-93
2022/12/30 09:47:09;;;;;;;1.80;0.82;;;7.40;99.90;;;;;;4879422;29;20043;-91
2022/12/30 09:49:57;;;;;;;2.97;0.57;;;7.30;99.90;;;;;;4875039;29;20056;-95
2022/12/30 09:52:46;;;;;;;5.70;1.85;;;7.30;99.90;;;;;;4878318;29;20043;-92
2022/12/30 09:55:28;;;;;;;8.60;1.23;;;7.30;99.90;;;;;;4871600;29;20029;-90
2022/12/30 09:58:01;;;;;;;8.93;2.85;;;7.30;99.90;;;;;;4874170;29;20049;-92
2022/12/30 10:00:32;;;;;;;5.15;1.20;;;7.30;99.90;;;;;;4878399;29;20029;-92
2022/12/30 10:03:18;;;;;;;7.00;1.65;;;7.40;99.90;;;;;;4879982;29;20044;-92
2022/12/30 10:06:08;;;;;;;5.50;0.88;;;7.30;99.90;;;;;;4880072;29;20227;-91
2022/12/30 10:08:58;;;;;;;6.07;1.20;;;7.40;99.90;;;;;;4877889;29;20053;-91
2022/12/30 10:11:41;;;;;;;4.28;0.82;;;7.40;99.90;;;;;;4869014;29;20038;-92
2022/12/30 10:18:27;;;;;;;6.60;0.90;;;7.40;99.90;;;;;;4912798;29;20083;-94
2022/12/30 10:20:55;;;;;;;;;;;7.40;99.90;;;;;;4919366;29;20083;-91
2022/12/30 10:23:43;;;;;;;5.38;1.00;;;7.40;99.90;;;;;;4936850;29;20332;-91
2022/12/30 10:26:24;;;;;;;1.92;0.93;;;7.40;99.90;;;;;;4948267;29;20020;-92
2022/12/30 10:28:52;;;;;;;1.17;0.60;;;7.40;99.90;;;;;;4936923;29;20028;-91
2022/12/30 10:31:25;;;;;;;8.40;1.00;;;7.40;99.90;;;;;;4928212;29;20019;-91
2022/12/30 10:33:54;;;;;;;4.03;0.80;;;7.40;99.90;;;;;;4920842;29;20035;-90
2022/12/30 10:36:37;;;;;;;4.40;0.90;;;7.40;99.90;;;;;;4920116;29;20027;-89
2022/12/30 10:39:15;;;;;;;3.80;0.80;;;7.40;99.90;;;;;;4912582;29;20557;-92
2022/12/30 10:42:20;;;;;;;3.55;0.77;;;7.40;99.90;;;;;;4935966;29;20032;-94
2022/12/30 10:44:46;;;;;;;1.42;0.60;;;7.40;99.90;;;;;;4935847;29;20070;-91
2022/12/30 10:47:40;;;;;;;3.25;0.70;;;7.40;99.90;;;;;;4912327;29;20044;-90
2022/12/30 10:50:27;;;;;;;2.55;0.50;;;7.40;99.90;;;;;;4905152;29;20024;-92
2022/12/30 10:52:56;;;;;;;3.28;0.60;;;7.40;99.90;;;;;;4920857;29;20039;-92
2022/12/30 10:55:28;;;;;;;4.03;0.60;;;7.40;99.90;;;;;;4913965;29;20024;-93
2022/12/30 10:58:01;;;;;;;2.35;0.60;;;7.40;99.90;;;;;;4943548;29;20046;-91
2022/12/30 11:00:27;;;;;;;1.23;0.50;;;7.40;99.90;;;;;;4938763;29;20024;-90
2022/12/30 11:02:57;;;;;;;4.63;0.93;;;7.40;99.90;;;;;;4925449;29;20087;-92
2022/12/30 11:05:38;;;;;;;1.33;0.57;;;7.40;99.90;;;;;;4924558;29;20216;-90
2022/12/30 11:08:23;;;;;;;3.78;0.63;;;7.40;99.90;;;;;;4923901;29;20062;-93
2022/12/30 11:11:00;;;;;;;0.47;0.43;;;7.40;99.90;;;;;;4921107;29;20028;-92
2022/12/30 11:16:12;;;;;;;1.00;0.57;;;7.50;99.90;;;;;;4937496;29;20046;-92
2022/12/30 11:18:49;;;;;;;2.92;0.70;;;7.50;99.90;;;;;;4923213;29;20089;-92
2022/12/30 11:21:27;;;;;;;1.63;0.55;;;7.50;99.90;;;;;;4951967;29;20036;-92
2022/12/30 11:23:55;;;;;;;1.20;0.60;;;7.50;99.90;;;;;;4935484;29;20047;-90
2022/12/30 11:26:23;;;;;;;5.03;1.50;;;7.50;99.90;;;;;;4935646;29;20050;-89
2022/12/30 11:28:56;;;;;;;3.40;0.95;;;7.60;99.90;;;;;;4936252;29;20573;-89
2022/12/30 11:31:29;;;;;;;1.75;0.77;;;7.60;99.90;;;;;;4951678;28;20023;-92
2022/12/30 11:33:58;;;;;;;1.55;0.80;;;7.60;99.90;;;;;;4936023;29;20035;-91
2022/12/30 11:36:27;;;;;;;2.75;0.77;;;7.60;99.90;;;;;;4933659;29;20030;-91
2022/12/30 11:38:54;;;;;;;5.53;0.82;;;7.70;99.90;;;;;;4925939;29;20135;-91
2022/12/30 11:41:29;;;;;;;1.13;0.60;;;7.70;99.90;;;;;;4935851;29;20114;-91
2022/12/30 11:43:58;;;;;;;11.93;0.70;;;7.70;99.90;;;;;;4936926;29;20035;-91
2022/12/30 11:46:30;;;;;;;0.35;0.30;;;7.80;99.90;;;;;;4928139;29;20553;-90
2022/12/30 11:49:00;;;;;;;1.73;0.80;;;7.80;99.90;;;;;;4951580;29;20027;-93
2022/12/30 11:51:29;;;;;;;1.48;0.80;;;7.80;99.90;;;;;;4935520;29;20425;-95
2022/12/30 11:54:10;;;;;;;1.95;1.00;;;7.80;99.90;;;;;;4951583;29;20046;-93
2022/12/30 11:56:37;;;;;;;;;;;7.90;99.90;;;;;;4934665;29;20020;-92
2022/12/30 11:59:18;;;;;;;4.18;1.10;;;7.90;99.90;;;;;;4934418;29;20391;-93
2022/12/30 12:01:47;;;;;;;4.70;2.22;;;7.90;99.90;;;;;;4933121;29;20123;-91
2022/12/30 12:04:32;;;;;;;5.43;1.20;;;7.90;99.90;;;;;;4950678;29;20035;-94
2022/12/30 12:06:59;;;;;;;4.00;1.20;;;7.90;99.90;;;;;;4950845;29;20031;-94
2022/12/30 12:09:41;;;;;;;4.97;0.75;;;8.00;99.90;;;;;;4951313;29;20493;-93
2022/12/30 12:12:12;;;;;;;3.38;0.90;;;8.00;99.90;;;;;;4949184;29;20469;-92
2022/12/30 12:15:00;;;;;;;1.23;1.13;;;8.10;99.90;;;;;;4951507;29;20051;-93
2022/12/30 12:17:41;;;;;;;3.65;1.00;;;8.10;99.90;;;;;;4925633;29;20020;-90
2022/12/30 12:20:13;;;;;;;;;;;8.20;99.90;;;;;;4924843;29;20059;-91
2022/12/30 12:22:53;;;;;;;1.02;0.60;;;8.20;99.90;;;;;;4950598;28;19922;-93
2022/12/30 12:25:28;;;;;;;2.53;0.82;;;8.20;99.90;;;;;;4927047;29;20016;-94
2022/12/30 12:27:54;;;;;;;2.83;0.30;;;8.30;99.90;;;;;;4944911;29;20056;-91
2022/12/30 12:30:20;;;;;;;0.63;0.63;;;8.30;99.90;;;;;;4936532;29;20039;-91
2022/12/30 12:32:49;;;;;;;1.70;0.82;;;8.40;99.90;;;;;;4953637;29;20047;-95
2022/12/30 12:35:46;;;;;;;2.90;1.15;;;8.40;99.90;;;;;;4937077;29;20031;-89
2022/12/30 12:38:34;;;;;;;1.02;0.70;;;8.50;99.90;;;;;;4917297;29;20032;-87
2022/12/30 12:41:21;;;;;;;1.42;0.60;;;8.60;99.90;;;;;;4922709;29;20028;-87
2022/12/30 12:44:22;;;;;;;1.85;0.50;;;8.60;99.90;;;;;;4916541;29;20104;-89
2022/12/30 12:46:57;;;;;;;0.68;0.50;;;8.70;99.90;;;;;;4915781;29;20439;-88
2022/12/30 12:49:31;;;;;;;0.52;0.50;;;8.70;99.90;;;;;;4931671;29;20032;-90
2022/12/30 12:52:25;;;;;;;1.95;0.60;;;8.80;99.90;;;;;;4914270;29;20035;-87
2022/12/30 12:55:20;;;;;;;0.77;0.43;;;8.80;99.90;;;;;;4914031;29;20032;-89
2022/12/30 12:58:00;;;;;;;1.70;0.60;;;8.80;99.90;;;;;;4930164;29;20080;-92
2022/12/30 13:00:35;;;;;;;0.47;0.43;;;8.90;99.90;;;;;;4930159;29;20040;-90
2022/12/30 13:03:17;;;;;;;1.10;0.32;;;8.90;99.90;;;;;;4931049;29;20431;-90
2022/12/30 13:06:14;;;;;;;1.35;0.65;;;8.90;99.90;;;;;;4933829;29;20083;-90
2022/12/30 13:09:01;;;;;;;3.72;0.90;;;8.90;99.90;;;;;;4919406;29;20032;-91
2022/12/30 13:11:41;;;;;;;3.22;0.65;;;9.00;99.90;;;;;;4918294;29;20024;-90
2022/12/30 13:14:19;;;;;;;2.58;0.77;;;9.00;99.90;;;;;;4918765;29;20131;-89
2022/12/30 13:16:50;;;;;;;0.57;0.43;;;9.10;99.90;;;;;;4918953;29;20044;-89
2022/12/30 13:19:19;;;;;;;1.67;0.40;;;9.20;99.90;;;;;;4934807;29;20135;-90
2022/12/30 13:21:52;;;;;;;1.80;0.77;;;9.20;99.90;;;;;;4934711;29;20083;-89
2022/12/30 13:24:28;;;;;;;1.15;0.40;;;9.30;99.90;;;;;;4934663;29;20040;-90
2022/12/30 13:26:55;;;;;;;3.25;0.70;;;9.30;99.90;;;;;;4935001;29;20024;-89
2022/12/30 13:29:21;;;;;;;5.03;0.60;;;9.40;99.90;;;;;;4934644;29;20032;-89
2022/12/30 13:32:11;;;;;;;5.55;0.75;;;9.50;99.90;;;;;;4934193;29;20048;-89
2022/12/30 13:34:48;;;;;;;1.30;0.50;;;9.50;99.90;;;;;;4934783;29;20039;-89
2022/12/30 13:37:25;;;;;;;1.20;0.35;;;9.50;99.90;;;;;;4919875;29;20486;-89
2022/12/30 13:40:23;;;;;;;0.68;0.50;;;9.50;99.90;;;;;;4918300;29;20032;-89
2022/12/30 13:43:14;;;;;;;0.43;0.32;;;9.60;99.90;;;;;;4915554;29;20048;-90
2022/12/30 13:45:47;;;;;;;0.63;0.60;;;9.60;99.90;;;;;;4918599;29;20043;-89
2022/12/30 13:48:18;;;;;;;0.77;0.50;;;9.70;99.90;;;;;;4935028;29;20043;-89
2022/12/30 13:50:44;;;;;;;1.23;0.50;;;9.70;99.90;;;;;;4934674;29;20024;-89
2022/12/30 13:53:45;;;;;;;1.67;0.40;;;9.70;99.90;;;;;;4934392;29;20032;-89
2022/12/30 13:56:19;;;;;;;1.85;0.40;;;9.70;99.90;;;;;;4934271;29;20032;-89
2022/12/30 13:58:52;;;;;;;0.40;0.30;;;9.70;99.90;;;;;;4920119;29;20024;-88
2022/12/30 14:01:28;;;;;;;0.55;0.40;;;9.70;99.90;;;;;;4935735;29;20043;-89
2022/12/30 14:04:14;;;;;;;2.10;0.55;;;9.70;99.90;;;;;;4938063;29;20048;-90
2022/12/30 14:06:40;;;;;;;2.75;0.57;;;9.80;99.90;;;;;;4916532;29;20615;-89
2022/12/30 14:09:18;;;;;;;1.45;0.70;;;9.80;99.90;;;;;;4919925;29;20032;-91
2022/12/30 14:12:21;;;;;;;2.90;0.55;;;9.80;99.90;;;;;;4934740;29;20058;-89